sensor_id;sensor_type;location;lat;lon;timestamp;temperature;humidity
32322;DHT22;61553;48.994;8.940;2023-04-06T00:01:07;-2.60;99.90
32322;DHT22;61553;48.994;8.940;2023-04-06T00:03:32;-2.60;99.90
32322;DHT22;61553;48.994;8.940;2023-04-06T00:05:58;-2.60;99.90
32322;DHT22;61553;48.994;8.940;2023-04-06T00:08:24;-2.60;99.90
32322;DHT22;61553;48.994;8.940;2023-04-06T00:10:49;-2.70;99.90
32322;DHT22;61553;48.994;8.940;2023-04-06T00:13:15;-2.70;99.90
32322;DHT22;61553;48.994;8.940;2023-04-06T00:15:41;-2.80;99.90
32322;DHT22;61553;48.994;8.940;2023-04-06T00:18:06;-2.80;99.90
32322;DHT22;61553;48.994;8.940;2023-04-06T00:20:32;-2.80;99.90
32322;DHT22;61553;48.994;8.940;2023-04-06T00:22:58;-2.80;99.90
32322;DHT22;61553;48.994;8.940;2023-04-06T00:25:23;-2.90;99.90
32322;DHT22;61553;48.994;8.940;2023-04-06T00:27:49;-2.90;99.90
32322;DHT22;61553;48.994;8.940;2023-04-06T00:30:15;-2.90;99.90
32322;DHT22;61553;48.994;8.940;2023-04-06T00:32:41;-3.00;99.90
32322;DHT22;61553;48.994;8.940;2023-04-06T00:35:06;-3.00;99.90
32322;DHT22;61553;48.994;8.940;2023-04-06T00:37:32;-3.00;99.90
32322;DHT22;61553;48.994;8.940;2023-04-06T00:39:58;-3.00;99.90
32322;DHT22;61553;48.994;8.940;2023-04-06T00:42:24;-3.00;99.90
32322;DHT22;61553;48.994;8.940;2023-04-06T00:44:58;-3.00;99.90
32322;DHT22;61553;48.994;8.940;2023-04-06T00:47:24;-3.00;99.90
32322;DHT22;61553;48.994;8.940;2023-04-06T00:49:51;-3.00;99.90
32322;DHT22;61553;48.994;8.940;2023-04-06T00:52:17;-3.10;99.90
32322;DHT22;61553;48.994;8.940;2023-04-06T00:54:42;-3.10;99.90
32322;DHT22;61553;48.994;8.940;2023-04-06T00:57:08;-3.10;99.90
32322;DHT22;61553;48.994;8.940;2023-04-06T00:59:34;-3.00;99.90
32322;DHT22;61553;48.994;8.940;2023-04-06T01:02:00;-3.10;99.90
32322;DHT22;61553;48.994;8.940;2023-04-06T01:04:26;-3.10;99.90
32322;DHT22;61553;48.994;8.940;2023-04-06T01:06:52;-3.20;99.90
32322;DHT22;61553;48.994;8.940;2023-04-06T01:09:18;-3.20;99.90
32322;DHT22;61553;48.994;8.940;2023-04-06T01:11:43;-3.20;99.90
32322;DHT22;61553;48.994;8.940;2023-04-06T01:14:09;-3.20;99.90
32322;DHT22;61553;48.994;8.940;2023-04-06T01:16:35;-3.10;99.90
32322;DHT22;61553;48.994;8.940;2023-04-06T01:19:04;-3.10;99.90
32322;DHT22;61553;48.994;8.940;2023-04-06T01:21:32;-3.00;99.90
32322;DHT22;61553;48.994;8.940;2023-04-06T01:23:57;-3.00;99.90
32322;DHT22;61553;48.994;8.940;2023-04-06T01:26:23;-2.90;99.90
32322;DHT22;61553;48.994;8.940;2023-04-06T01:28:49;-2.90;99.90
32322;DHT22;61553;48.994;8.940;2023-04-06T01:31:14;-2.70;99.90
32322;DHT22;61553;48.994;8.940;2023-04-06T01:33:40;-2.60;99.90
32322;DHT22;61553;48.994;8.940;2023-04-06T01:36:06;-2.50;99.90
32322;DHT22;61553;48.994;8.940;2023-04-06T01:38:31;-2.50;99.90
32322;DHT22;61553;48.994;8.940;2023-04-06T01:40:57;-2.40;99.90
32322;DHT22;61553;48.994;8.940;2023-04-06T01:43:23;-2.30;99.90
32322;DHT22;61553;48.994;8.940;2023-04-06T01:45:48;-2.20;99.90
32322;DHT22;61553;48.994;8.940;2023-04-06T01:48:14;-2.20;99.90
32322;DHT22;61553;48.994;8.940;2023-04-06T01:50:40;-2.10;99.90
32322;DHT22;61553;48.994;8.940;2023-04-06T01:53:05;-2.00;99.90
32322;DHT22;61553;48.994;8.940;2023-04-06T01:55:31;-1.90;99.90
32322;DHT22;61553;48.994;8.940;2023-04-06T01:57:57;-1.90;99.90
32322;DHT22;61553;48.994;8.940;2023-04-06T02:00:22;-1.80;99.90
32322;DHT22;61553;48.994;8.940;2023-04-06T02:02:48;-1.70;99.90
32322;DHT22;61553;48.994;8.940;2023-04-06T02:05:13;-1.60;99.90
32322;DHT22;61553;48.994;8.940;2023-04-06T02:07:39;-1.60;99.90
32322;DHT22;61553;48.994;8.940;2023-04-06T02:10:13;-1.50;99.90
32322;DHT22;61553;48.994;8.940;2023-04-06T02:12:39;-1.60;99.90
32322;DHT22;61553;48.994;8.940;2023-04-06T02:15:05;-1.60;99.90
32322;DHT22;61553;48.994;8.940;2023-04-06T02:17:31;-1.60;99.90
32322;DHT22;61553;48.994;8.940;2023-04-06T02:19:56;-1.60;99.90
32322;DHT22;61553;48.994;8.940;2023-04-06T02:22:22;-1.70;99.90
32322;DHT22;61553;48.994;8.940;2023-04-06T02:24:48;-1.80;99.90
32322;DHT22;61553;48.994;8.940;2023-04-06T02:27:16;-1.80;99.90
32322;DHT22;61553;48.994;8.940;2023-04-06T02:29:42;-1.90;99.90
32322;DHT22;61553;48.994;8.940;2023-04-06T02:32:07;-1.90;99.90
32322;DHT22;61553;48.994;8.940;2023-04-06T02:34:33;-2.00;99.90
32322;DHT22;61553;48.994;8.940;2023-04-06T02:36:59;-2.00;99.90
32322;DHT22;61553;48.994;8.940;2023-04-06T02:39:24;-2.10;99.90
32322;DHT22;61553;48.994;8.940;2023-04-06T02:41:50;-2.10;99.90
32322;DHT22;61553;48.994;8.940;2023-04-06T02:44:15;-2.10;99.90
32322;DHT22;61553;48.994;8.940;2023-04-06T02:46:41;-2.10;99.90
32322;DHT22;61553;48.994;8.940;2023-04-06T02:49:07;-2.10;99.90
32322;DHT22;61553;48.994;8.940;2023-04-06T02:51:33;-2.10;99.90
32322;DHT22;61553;48.994;8.940;2023-04-06T02:53:59;-2.10;99.90
32322;DHT22;61553;48.994;8.940;2023-04-06T02:56:24;-2.10;99.90
32322;DHT22;61553;48.994;8.940;2023-04-06T02:58:50;-2.10;99.90
32322;DHT22;61553;48.994;8.940;2023-04-06T03:01:16;-2.20;99.90
32322;DHT22;61553;48.994;8.940;2023-04-06T03:03:42;-2.20;99.90
32322;DHT22;61553;48.994;8.940;2023-04-06T03:06:07;-1.70;99.90
32322;DHT22;61553;48.994;8.940;2023-04-06T03:08:33;-2.20;99.90
32322;DHT22;61553;48.994;8.940;2023-04-06T03:10:58;-2.30;99.90
32322;DHT22;61553;48.994;8.940;2023-04-06T03:13:24;-2.30;99.90
32322;DHT22;61553;48.994;8.940;2023-04-06T03:15:50;-2.40;99.90
32322;DHT22;61553;48.994;8.940;2023-04-06T03:18:17;-2.40;99.90
32322;DHT22;61553;48.994;8.940;2023-04-06T03:20:43;-2.50;99.90
32322;DHT22;61553;48.994;8.940;2023-04-06T03:23:08;-1.50;99.90
32322;DHT22;61553;48.994;8.940;2023-04-06T03:25:34;-2.60;99.90
32322;DHT22;61553;48.994;8.940;2023-04-06T03:27:59;-2.60;99.90
32322;DHT22;61553;48.994;8.940;2023-04-06T03:30:25;-2.70;99.90
32322;DHT22;61553;48.994;8.940;2023-04-06T03:32:51;-2.70;99.90
32322;DHT22;61553;48.994;8.940;2023-04-06T03:35:17;-2.70;99.90
32322;DHT22;61553;48.994;8.940;2023-04-06T03:37:43;-2.70;99.90
32322;DHT22;61553;48.994;8.940;2023-04-06T03:40:09;-2.70;99.90
32322;DHT22;61553;48.994;8.940;2023-04-06T03:42:34;-2.70;99.90
32322;DHT22;61553;48.994;8.940;2023-04-06T03:45:00;-2.80;99.90
32322;DHT22;61553;48.994;8.940;2023-04-06T03:47:26;-2.90;99.90
32322;DHT22;61553;48.994;8.940;2023-04-06T03:49:51;-2.90;99.90
32322;DHT22;61553;48.994;8.940;2023-04-06T03:52:17;-3.00;99.90
32322;DHT22;61553;48.994;8.940;2023-04-06T03:54:43;-3.00;99.90
32322;DHT22;61553;48.994;8.940;2023-04-06T03:57:08;-3.00;99.90
32322;DHT22;61553;48.994;8.940;2023-04-06T03:59:34;-3.10;99.90
32322;DHT22;61553;48.994;8.940;2023-04-06T04:02:00;-3.10;99.90
32322;DHT22;61553;48.994;8.940;2023-04-06T04:04:26;-3.20;99.90
32322;DHT22;61553;48.994;8.940;2023-04-06T04:06:51;-3.20;99.90
32322;DHT22;61553;48.994;8.940;2023-04-06T04:09:17;-3.20;99.90
32322;DHT22;61553;48.994;8.940;2023-04-06T04:11:43;-3.20;99.90
32322;DHT22;61553;48.994;8.940;2023-04-06T04:14:08;-3.20;99.90
32322;DHT22;61553;48.994;8.940;2023-04-06T04:16:34;-3.30;99.90
32322;DHT22;61553;48.994;8.940;2023-04-06T04:18:59;-3.30;99.90
32322;DHT22;61553;48.994;8.940;2023-04-06T04:21:25;-3.40;99.90
32322;DHT22;61553;48.994;8.940;2023-04-06T04:23:51;-3.40;99.90
32322;DHT22;61553;48.994;8.940;2023-04-06T04:26:18;-3.50;99.90
32322;DHT22;61553;48.994;8.940;2023-04-06T04:28:43;-3.50;99.90
32322;DHT22;61553;48.994;8.940;2023-04-06T04:31:09;-3.50;99.90
32322;DHT22;61553;48.994;8.940;2023-04-06T04:33:35;-3.50;99.90
32322;DHT22;61553;48.994;8.940;2023-04-06T04:36:01;-3.50;99.90
32322;DHT22;61553;48.994;8.940;2023-04-06T04:38:27;-3.50;99.90
32322;DHT22;61553;48.994;8.940;2023-04-06T04:40:52;-3.50;99.90
32322;DHT22;61553;48.994;8.940;2023-04-06T04:43:18;-3.60;99.90
32322;DHT22;61553;48.994;8.940;2023-04-06T04:45:43;-3.60;99.90
32322;DHT22;61553;48.994;8.940;2023-04-06T04:48:09;-2.90;99.90
32322;DHT22;61553;48.994;8.940;2023-04-06T04:50:35;-3.70;99.90
32322;DHT22;61553;48.994;8.940;2023-04-06T04:53:01;-3.60;99.90
32322;DHT22;61553;48.994;8.940;2023-04-06T04:55:27;-3.60;99.90
32322;DHT22;61553;48.994;8.940;2023-04-06T04:57:54;-3.50;99.90
32322;DHT22;61553;48.994;8.940;2023-04-06T05:00:20;-3.50;99.90
32322;DHT22;61553;48.994;8.940;2023-04-06T05:02:46;-3.50;99.90
32322;DHT22;61553;48.994;8.940;2023-04-06T05:05:11;-3.40;99.90
32322;DHT22;61553;48.994;8.940;2023-04-06T05:07:37;-3.40;99.90
32322;DHT22;61553;48.994;8.940;2023-04-06T05:10:03;-3.30;99.90
32322;DHT22;61553;48.994;8.940;2023-04-06T05:12:28;-3.30;99.90
32322;DHT22;61553;48.994;8.940;2023-04-06T05:14:54;-3.30;99.90
32322;DHT22;61553;48.994;8.940;2023-04-06T05:17:20;-3.30;99.90
32322;DHT22;61553;48.994;8.940;2023-04-06T05:19:46;-3.20;99.90
32322;DHT22;61553;48.994;8.940;2023-04-06T05:22:11;-3.10;99.90
32322;DHT22;61553;48.994;8.940;2023-04-06T05:24:39;-3.00;99.90
32322;DHT22;61553;48.994;8.940;2023-04-06T05:27:05;-3.00;99.90
32322;DHT22;61553;48.994;8.940;2023-04-06T05:29:31;-2.90;99.90
32322;DHT22;61553;48.994;8.940;2023-04-06T05:31:57;-2.90;99.90
32322;DHT22;61553;48.994;8.940;2023-04-06T05:34:22;-2.80;99.90
32322;DHT22;61553;48.994;8.940;2023-04-06T05:36:48;-2.70;99.90
32322;DHT22;61553;48.994;8.940;2023-04-06T05:39:14;-2.60;99.90
32322;DHT22;61553;48.994;8.940;2023-04-06T05:41:40;-2.50;99.90
32322;DHT22;61553;48.994;8.940;2023-04-06T05:44:05;-2.40;99.90
32322;DHT22;61553;48.994;8.940;2023-04-06T05:46:31;-2.30;99.90
32322;DHT22;61553;48.994;8.940;2023-04-06T05:48:57;-2.20;99.90
32322;DHT22;61553;48.994;8.940;2023-04-06T05:51:22;-2.10;99.90
32322;DHT22;61553;48.994;8.940;2023-04-06T05:53:48;-2.00;99.90
32322;DHT22;61553;48.994;8.940;2023-04-06T05:56:14;-1.90;99.90
32322;DHT22;61553;48.994;8.940;2023-04-06T05:58:39;-1.80;99.90
32322;DHT22;61553;48.994;8.940;2023-04-06T06:01:05;-1.60;99.90
32322;DHT22;61553;48.994;8.940;2023-04-06T06:03:31;-1.40;99.90
32322;DHT22;61553;48.994;8.940;2023-04-06T06:06:01;-1.20;99.90
32322;DHT22;61553;48.994;8.940;2023-04-06T06:08:27;-1.10;99.90
32322;DHT22;61553;48.994;8.940;2023-04-06T06:10:53;-1.00;99.90
32322;DHT22;61553;48.994;8.940;2023-04-06T06:13:18;-0.80;99.90
32322;DHT22;61553;48.994;8.940;2023-04-06T06:15:44;-0.60;99.90
32322;DHT22;61553;48.994;8.940;2023-04-06T06:18:10;0.40;99.90
32322;DHT22;61553;48.994;8.940;2023-04-06T06:20:35;-0.30;99.90
32322;DHT22;61553;48.994;8.940;2023-04-06T06:23:01;-0.20;99.90
32322;DHT22;61553;48.994;8.940;2023-04-06T06:25:27;0.00;99.90
32322;DHT22;61553;48.994;8.940;2023-04-06T06:27:52;0.10;99.90
32322;DHT22;61553;48.994;8.940;2023-04-06T06:30:18;0.30;99.90
32322;DHT22;61553;48.994;8.940;2023-04-06T06:32:43;0.60;99.90
32322;DHT22;61553;48.994;8.940;2023-04-06T06:35:09;0.70;99.90
32322;DHT22;61553;48.994;8.940;2023-04-06T06:37:35;1.00;99.90
32322;DHT22;61553;48.994;8.940;2023-04-06T06:40:01;1.00;99.90
32322;DHT22;61553;48.994;8.940;2023-04-06T06:42:26;1.30;99.90
32322;DHT22;61553;48.994;8.940;2023-04-06T06:44:52;1.40;99.90
32322;DHT22;61553;48.994;8.940;2023-04-06T06:47:18;1.60;99.90
32322;DHT22;61553;48.994;8.940;2023-04-06T06:49:43;1.80;99.90
32322;DHT22;61553;48.994;8.940;2023-04-06T06:52:09;1.90;99.90
32322;DHT22;61553;48.994;8.940;2023-04-06T06:54:34;2.30;99.90
32322;DHT22;61553;48.994;8.940;2023-04-06T06:57:00;2.60;99.90
32322;DHT22;61553;48.994;8.940;2023-04-06T06:59:26;3.60;99.90
32322;DHT22;61553;48.994;8.940;2023-04-06T07:01:51;5.70;99.90
32322;DHT22;61553;48.994;8.940;2023-04-06T07:04:17;7.80;97.70
32322;DHT22;61553;48.994;8.940;2023-04-06T07:06:43;9.70;85.00
32322;DHT22;61553;48.994;8.940;2023-04-06T07:09:09;11.30;72.80
32322;DHT22;61553;48.994;8.940;2023-04-06T07:11:34;12.60;65.40
32322;DHT22;61553;48.994;8.940;2023-04-06T07:14:00;14.20;61.60
32322;DHT22;61553;48.994;8.940;2023-04-06T07:16:26;15.30;55.10
32322;DHT22;61553;48.994;8.940;2023-04-06T07:18:51;15.30;52.00
32322;DHT22;61553;48.994;8.940;2023-04-06T07:21:17;15.70;49.90
32322;DHT22;61553;48.994;8.940;2023-04-06T07:23:43;16.30;49.80
32322;DHT22;61553;48.994;8.940;2023-04-06T07:26:08;17.20;46.00
32322;DHT22;61553;48.994;8.940;2023-04-06T07:28:34;18.00;44.70
32322;DHT22;61553;48.994;8.940;2023-04-06T07:31:00;18.40;42.00
32322;DHT22;61553;48.994;8.940;2023-04-06T07:33:26;17.70;42.60
32322;DHT22;61553;48.994;8.940;2023-04-06T07:35:55;18.20;42.50
32322;DHT22;61553;48.994;8.940;2023-04-06T07:38:21;17.00;44.30
32322;DHT22;61553;48.994;8.940;2023-04-06T07:40:46;16.20;45.70
32322;DHT22;61553;48.994;8.940;2023-04-06T07:43:12;17.40;41.70
32322;DHT22;61553;48.994;8.940;2023-04-06T07:45:38;17.90;42.10
32322;DHT22;61553;48.994;8.940;2023-04-06T07:48:03;17.70;42.90
32322;DHT22;61553;48.994;8.940;2023-04-06T07:50:29;19.40;41.80
32322;DHT22;61553;48.994;8.940;2023-04-06T07:52:55;20.80;39.70
32322;DHT22;61553;48.994;8.940;2023-04-06T07:55:20;19.80;38.80
32322;DHT22;61553;48.994;8.940;2023-04-06T07:57:46;20.90;38.20
32322;DHT22;61553;48.994;8.940;2023-04-06T08:00:13;19.60;38.30
32322;DHT22;61553;48.994;8.940;2023-04-06T08:02:39;19.90;38.80
32322;DHT22;61553;48.994;8.940;2023-04-06T08:05:05;19.50;38.50
32322;DHT22;61553;48.994;8.940;2023-04-06T08:07:31;20.50;37.80
32322;DHT22;61553;48.994;8.940;2023-04-06T08:09:56;21.80;35.60
32322;DHT22;61553;48.994;8.940;2023-04-06T08:12:22;21.70;35.80
32322;DHT22;61553;48.994;8.940;2023-04-06T08:14:48;22.50;35.00
32322;DHT22;61553;48.994;8.940;2023-04-06T08:17:13;22.80;33.60
32322;DHT22;61553;48.994;8.940;2023-04-06T08:19:41;22.70;33.70
32322;DHT22;61553;48.994;8.940;2023-04-06T08:22:07;22.20;34.10
32322;DHT22;61553;48.994;8.940;2023-04-06T08:24:33;22.20;33.50
32322;DHT22;61553;48.994;8.940;2023-04-06T08:26:59;20.90;35.20
32322;DHT22;61553;48.994;8.940;2023-04-06T08:29:24;21.50;33.80
32322;DHT22;61553;48.994;8.940;2023-04-06T08:31:50;20.50;35.10
32322;DHT22;61553;48.994;8.940;2023-04-06T08:34:15;20.40;35.20
32322;DHT22;61553;48.994;8.940;2023-04-06T08:36:41;20.80;36.40
32322;DHT22;61553;48.994;8.940;2023-04-06T08:39:07;23.60;33.50
32322;DHT22;61553;48.994;8.940;2023-04-06T08:41:33;23.20;31.60
32322;DHT22;61553;48.994;8.940;2023-04-06T08:44:00;23.40;31.60
32322;DHT22;61553;48.994;8.940;2023-04-06T08:46:26;23.90;32.00
32322;DHT22;61553;48.994;8.940;2023-04-06T08:49:02;23.60;31.20
32322;DHT22;61553;48.994;8.940;2023-04-06T08:51:29;24.30;31.40
32322;DHT22;61553;48.994;8.940;2023-04-06T08:53:59;24.70;31.50
32322;DHT22;61553;48.994;8.940;2023-04-06T08:56:26;23.90;31.20
32322;DHT22;61553;48.994;8.940;2023-04-06T08:58:53;24.10;31.50
32322;DHT22;61553;48.994;8.940;2023-04-06T09:01:29;25.90;30.10
32322;DHT22;61553;48.994;8.940;2023-04-06T09:03:57;25.70;30.00
32322;DHT22;61553;48.994;8.940;2023-04-06T09:06:24;26.90;29.90
32322;DHT22;61553;48.994;8.940;2023-04-06T09:08:49;27.00;29.70
32322;DHT22;61553;48.994;8.940;2023-04-06T09:11:15;28.20;29.20
32322;DHT22;61553;48.994;8.940;2023-04-06T09:13:51;28.00;29.10
32322;DHT22;61553;48.994;8.940;2023-04-06T09:16:18;28.90;27.70
32322;DHT22;61553;48.994;8.940;2023-04-06T09:18:44;29.20;27.70
32322;DHT22;61553;48.994;8.940;2023-04-06T09:21:10;28.80;27.80
32322;DHT22;61553;48.994;8.940;2023-04-06T09:23:36;30.10;26.80
32322;DHT22;61553;48.994;8.940;2023-04-06T09:26:11;29.30;26.80
32322;DHT22;61553;48.994;8.940;2023-04-06T09:28:52;27.80;26.70
32322;DHT22;61553;48.994;8.940;2023-04-06T09:31:29;29.00;26.20
32322;DHT22;61553;48.994;8.940;2023-04-06T09:33:56;29.60;25.80
32322;DHT22;61553;48.994;8.940;2023-04-06T09:36:32;28.50;26.50
32322;DHT22;61553;48.994;8.940;2023-04-06T09:39:00;28.60;27.10
32322;DHT22;61553;48.994;8.940;2023-04-06T09:41:35;28.90;26.30
32322;DHT22;61553;48.994;8.940;2023-04-06T09:44:03;28.10;26.70
32322;DHT22;61553;48.994;8.940;2023-04-06T09:46:32;29.00;26.60
32322;DHT22;61553;48.994;8.940;2023-04-06T09:49:02;27.80;26.80
32322;DHT22;61553;48.994;8.940;2023-04-06T09:51:40;27.90;26.70
32322;DHT22;61553;48.994;8.940;2023-04-06T09:54:07;29.00;26.30
32322;DHT22;61553;48.994;8.940;2023-04-06T09:56:45;31.40;25.30
32322;DHT22;61553;48.994;8.940;2023-04-06T09:59:25;31.70;25.10
32322;DHT22;61553;48.994;8.940;2023-04-06T10:01:53;30.80;25.10
32322;DHT22;61553;48.994;8.940;2023-04-06T10:06:55;30.40;25.00
32322;DHT22;61553;48.994;8.940;2023-04-06T10:09:25;29.40;25.30
32322;DHT22;61553;48.994;8.940;2023-04-06T10:11:52;30.50;25.30
32322;DHT22;61553;48.994;8.940;2023-04-06T10:14:18;28.30;25.30
32322;DHT22;61553;48.994;8.940;2023-04-06T10:16:43;27.60;26.40
32322;DHT22;61553;48.994;8.940;2023-04-06T10:19:15;28.60;25.60
32322;DHT22;61553;48.994;8.940;2023-04-06T10:21:42;28.40;25.20
32322;DHT22;61553;48.994;8.940;2023-04-06T10:24:09;28.30;24.60
32322;DHT22;61553;48.994;8.940;2023-04-06T10:26:38;27.60;25.20
32322;DHT22;61553;48.994;8.940;2023-04-06T10:29:05;28.50;25.90
32322;DHT22;61553;48.994;8.940;2023-04-06T10:31:31;29.30;25.70
32322;DHT22;61553;48.994;8.940;2023-04-06T10:33:58;28.40;25.00
32322;DHT22;61553;48.994;8.940;2023-04-06T10:36:26;27.70;25.40
32322;DHT22;61553;48.994;8.940;2023-04-06T10:39:05;28.20;25.20
32322;DHT22;61553;48.994;8.940;2023-04-06T10:41:42;26.80;25.40
32322;DHT22;61553;48.994;8.940;2023-04-06T10:44:07;26.60;25.90
32322;DHT22;61553;48.994;8.940;2023-04-06T10:46:33;25.00;25.70
32322;DHT22;61553;48.994;8.940;2023-04-06T10:49:11;24.70;26.60
32322;DHT22;61553;48.994;8.940;2023-04-06T10:51:38;24.20;27.10
32322;DHT22;61553;48.994;8.940;2023-04-06T10:54:06;23.90;27.20
32322;DHT22;61553;48.994;8.940;2023-04-06T10:56:33;23.10;27.70
32322;DHT22;61553;48.994;8.940;2023-04-06T10:59:02;22.20;28.40
32322;DHT22;61553;48.994;8.940;2023-04-06T11:01:27;21.50;29.70
32322;DHT22;61553;48.994;8.940;2023-04-06T11:03:55;21.40;29.10
32322;DHT22;61553;48.994;8.940;2023-04-06T11:08:51;21.10;29.20
32322;DHT22;61553;48.994;8.940;2023-04-06T11:11:18;20.90;29.50
32322;DHT22;61553;48.994;8.940;2023-04-06T11:16:24;21.10;29.00
32322;DHT22;61553;48.994;8.940;2023-04-06T11:21:35;21.30;29.20
32322;DHT22;61553;48.994;8.940;2023-04-06T11:24:11;21.30;29.70
32322;DHT22;61553;48.994;8.940;2023-04-06T11:26:46;21.00;29.80
32322;DHT22;61553;48.994;8.940;2023-04-06T11:29:17;20.60;29.70
32322;DHT22;61553;48.994;8.940;2023-04-06T11:31:46;20.60;29.60
32322;DHT22;61553;48.994;8.940;2023-04-06T11:34:23;20.40;29.90
32322;DHT22;61553;48.994;8.940;2023-04-06T11:36:54;20.30;30.20
32322;DHT22;61553;48.994;8.940;2023-04-06T11:39:21;20.50;29.70
32322;DHT22;61553;48.994;8.940;2023-04-06T11:41:58;20.70;29.80
32322;DHT22;61553;48.994;8.940;2023-04-06T11:44:31;20.40;29.90
32322;DHT22;61553;48.994;8.940;2023-04-06T11:46:57;20.10;30.30
32322;DHT22;61553;48.994;8.940;2023-04-06T11:49:27;20.20;30.30
32322;DHT22;61553;48.994;8.940;2023-04-06T11:51:54;19.80;31.20
32322;DHT22;61553;48.994;8.940;2023-04-06T11:54:33;19.60;31.50
32322;DHT22;61553;48.994;8.940;2023-04-06T12:06:45;18.20;31.60
32322;DHT22;61553;48.994;8.940;2023-04-06T12:09:11;17.90;32.70
32322;DHT22;61553;48.994;8.940;2023-04-06T12:11:36;17.90;33.30
32322;DHT22;61553;48.994;8.940;2023-04-06T12:14:02;17.90;33.00
32322;DHT22;61553;48.994;8.940;2023-04-06T12:16:33;17.90;31.70
32322;DHT22;61553;48.994;8.940;2023-04-06T12:18:59;17.90;32.60
32322;DHT22;61553;48.994;8.940;2023-04-06T12:21:27;17.70;33.30
32322;DHT22;61553;48.994;8.940;2023-04-06T12:23:53;17.70;33.60
32322;DHT22;61553;48.994;8.940;2023-04-06T12:26:19;17.70;32.80
32322;DHT22;61553;48.994;8.940;2023-04-06T12:28:45;17.40;33.50
32322;DHT22;61553;48.994;8.940;2023-04-06T12:31:15;17.20;33.30
32322;DHT22;61553;48.994;8.940;2023-04-06T12:33:41;17.00;33.40
32322;DHT22;61553;48.994;8.940;2023-04-06T12:36:12;16.70;34.30
32322;DHT22;61553;48.994;8.940;2023-04-06T12:38:38;16.60;33.30
32322;DHT22;61553;48.994;8.940;2023-04-06T12:41:05;16.60;33.80
32322;DHT22;61553;48.994;8.940;2023-04-06T12:43:31;16.00;34.70
32322;DHT22;61553;48.994;8.940;2023-04-06T12:45:56;15.70;35.00
32322;DHT22;61553;48.994;8.940;2023-04-06T12:48:22;15.80;36.00
32322;DHT22;61553;48.994;8.940;2023-04-06T12:50:55;15.80;35.80
32322;DHT22;61553;48.994;8.940;2023-04-06T12:53:21;15.90;35.90
32322;DHT22;61553;48.994;8.940;2023-04-06T12:55:47;16.30;34.50
32322;DHT22;61553;48.994;8.940;2023-04-06T12:58:12;16.40;34.20
32322;DHT22;61553;48.994;8.940;2023-04-06T13:00:38;16.40;34.20
32322;DHT22;61553;48.994;8.940;2023-04-06T13:03:04;16.50;33.50
32322;DHT22;61553;48.994;8.940;2023-04-06T13:05:30;16.60;34.10
32322;DHT22;61553;48.994;8.940;2023-04-06T13:07:55;16.50;33.80
32322;DHT22;61553;48.994;8.940;2023-04-06T13:10:22;16.50;33.80
32322;DHT22;61553;48.994;8.940;2023-04-06T13:12:48;16.50;34.20
32322;DHT22;61553;48.994;8.940;2023-04-06T13:15:13;16.60;34.10
32322;DHT22;61553;48.994;8.940;2023-04-06T13:17:39;16.50;34.40
32322;DHT22;61553;48.994;8.940;2023-04-06T13:20:06;16.70;33.90
32322;DHT22;61553;48.994;8.940;2023-04-06T13:22:32;16.60;34.00
32322;DHT22;61553;48.994;8.940;2023-04-06T13:24:57;16.50;34.30
32322;DHT22;61553;48.994;8.940;2023-04-06T13:27:23;16.40;34.30
32322;DHT22;61553;48.994;8.940;2023-04-06T13:29:48;16.40;34.70
32322;DHT22;61553;48.994;8.940;2023-04-06T13:32:15;16.90;34.80
32322;DHT22;61553;48.994;8.940;2023-04-06T13:34:41;17.30;34.30
32322;DHT22;61553;48.994;8.940;2023-04-06T13:37:14;17.60;34.10
32322;DHT22;61553;48.994;8.940;2023-04-06T13:39:40;17.90;34.60
32322;DHT22;61553;48.994;8.940;2023-04-06T13:42:06;18.00;34.20
32322;DHT22;61553;48.994;8.940;2023-04-06T13:44:32;18.10;33.40
32322;DHT22;61553;48.994;8.940;2023-04-06T13:46:58;18.20;33.10
32322;DHT22;61553;48.994;8.940;2023-04-06T13:49:24;18.10;32.50
32322;DHT22;61553;48.994;8.940;2023-04-06T13:51:49;17.70;32.50
32322;DHT22;61553;48.994;8.940;2023-04-06T13:54:15;17.60;33.40
32322;DHT22;61553;48.994;8.940;2023-04-06T13:56:41;17.50;34.50
32322;DHT22;61553;48.994;8.940;2023-04-06T13:59:07;17.80;34.00
32322;DHT22;61553;48.994;8.940;2023-04-06T14:01:32;17.50;32.80
32322;DHT22;61553;48.994;8.940;2023-04-06T14:03:58;17.50;32.70
32322;DHT22;61553;48.994;8.940;2023-04-06T14:06:23;17.20;33.90
32322;DHT22;61553;48.994;8.940;2023-04-06T14:08:50;17.10;34.10
32322;DHT22;61553;48.994;8.940;2023-04-06T14:11:15;17.10;34.10
32322;DHT22;61553;48.994;8.940;2023-04-06T14:13:41;17.00;34.70
32322;DHT22;61553;48.994;8.940;2023-04-06T14:16:07;16.90;34.70
32322;DHT22;61553;48.994;8.940;2023-04-06T14:18:33;16.90;34.50
32322;DHT22;61553;48.994;8.940;2023-04-06T14:21:00;16.80;34.40
32322;DHT22;61553;48.994;8.940;2023-04-06T14:23:27;16.70;34.50
32322;DHT22;61553;48.994;8.940;2023-04-06T14:26:07;16.70;34.80
32322;DHT22;61553;48.994;8.940;2023-04-06T14:28:34;16.80;34.20
32322;DHT22;61553;48.994;8.940;2023-04-06T14:31:02;16.80;34.50
32322;DHT22;61553;48.994;8.940;2023-04-06T14:33:29;16.80;34.60
32322;DHT22;61553;48.994;8.940;2023-04-06T14:35:55;17.00;34.90
32322;DHT22;61553;48.994;8.940;2023-04-06T14:38:21;16.80;34.20
32322;DHT22;61553;48.994;8.940;2023-04-06T14:40:47;16.60;34.50
32322;DHT22;61553;48.994;8.940;2023-04-06T14:43:13;16.70;34.50
32322;DHT22;61553;48.994;8.940;2023-04-06T14:45:38;16.50;34.50
32322;DHT22;61553;48.994;8.940;2023-04-06T14:48:05;16.60;34.60
32322;DHT22;61553;48.994;8.940;2023-04-06T14:50:32;16.70;34.70
32322;DHT22;61553;48.994;8.940;2023-04-06T14:52:58;16.80;34.90
32322;DHT22;61553;48.994;8.940;2023-04-06T14:55:24;16.80;36.50
32322;DHT22;61553;48.994;8.940;2023-04-06T14:57:50;16.80;36.90
32322;DHT22;61553;48.994;8.940;2023-04-06T15:00:15;16.70;37.90
32322;DHT22;61553;48.994;8.940;2023-04-06T15:02:41;16.50;38.40
32322;DHT22;61553;48.994;8.940;2023-04-06T15:05:08;16.30;38.50
32322;DHT22;61553;48.994;8.940;2023-04-06T15:07:34;16.10;39.50
32322;DHT22;61553;48.994;8.940;2023-04-06T15:10:00;16.10;39.60
32322;DHT22;61553;48.994;8.940;2023-04-06T15:12:25;16.00;40.30
32322;DHT22;61553;48.994;8.940;2023-04-06T15:14:51;15.90;41.60
32322;DHT22;61553;48.994;8.940;2023-04-06T15:17:16;16.00;41.30
32322;DHT22;61553;48.994;8.940;2023-04-06T15:19:42;16.10;41.00
32322;DHT22;61553;48.994;8.940;2023-04-06T15:22:08;16.10;40.10
32322;DHT22;61553;48.994;8.940;2023-04-06T15:24:33;16.00;41.30
32322;DHT22;61553;48.994;8.940;2023-04-06T15:26:59;15.90;42.10
32322;DHT22;61553;48.994;8.940;2023-04-06T15:29:25;15.70;41.80
32322;DHT22;61553;48.994;8.940;2023-04-06T15:31:51;15.60;42.10
32322;DHT22;61553;48.994;8.940;2023-04-06T15:34:16;15.70;41.70
32322;DHT22;61553;48.994;8.940;2023-04-06T15:36:42;15.50;40.90
32322;DHT22;61553;48.994;8.940;2023-04-06T15:39:09;15.40;41.00
32322;DHT22;61553;48.994;8.940;2023-04-06T15:41:34;15.30;40.50
32322;DHT22;61553;48.994;8.940;2023-04-06T15:44:01;15.20;42.20
32322;DHT22;61553;48.994;8.940;2023-04-06T15:46:26;15.20;42.10
32322;DHT22;61553;48.994;8.940;2023-04-06T15:48:52;15.00;41.90